• Join FlightAware (Why Join?)
  • Login
  • US Flag 
03:42PM EST


 

Airport Tracker/Info


-or-


 

Live Flight TrackerFlight Track Log ✈ SWA2612 ✈ 08-May-2013 ✈ KPHX - KSFO

Flight Track Log - Related Links

Times and Time Zones

All times are in EDT time to prevent confusion due to time zone crossing. See the SWA2612 flight status page for this flight to view local times or setup timezone preferences in your user account.

Time Position Orientation Groundspeed Altitude Reporting Facility
EDT Latitude Longitude Course Direction KTS MPH feet Rate Location/Type
01:49AM 33.4333 -112.0333 220° Southwest 154 177 2,500  Level Phoenix TRACON
01:50AM 33.4167 -112.0500 220° Southwest 167 192 3,000 2,460 Climbing Phoenix TRACON
01:51AM 33.4000 -112.1167 253° West 211 243 5,700 3,000 Climbing Phoenix TRACON
01:52AM 33.4114 -112.2086 278° West 256 295 9,800 3,180 Climbing Albuquerque Center
01:53AM 33.4150 -112.3094 272° West 292 336 12,900 3,780 Climbing Albuquerque Center
01:54AM 33.4269 -112.4494 276° West 337 388 17,500 3,840 Climbing Albuquerque Center
01:55AM 33.4361 -112.5717 275° West 357 411 20,700 2,760 Climbing Albuquerque Center
01:56AM 33.4436 -112.6803 275° West 377 434 23,100 2,640 Climbing Albuquerque Center
01:57AM 33.4528 -112.8114 275° West 392 451 26,100 2,700 Climbing Albuquerque Center
01:58AM 33.4758 -112.9414 282° West 401 461 28,600 2,400 Climbing Albuquerque Center
01:59AM 33.5064 -113.0986 283° West 404 465 31,100 2,340 Climbing Albuquerque Center
02:00AM 33.5317 -113.2325 283° West 412 474 33,400 2,160 Climbing Albuquerque Center
02:01AM 33.5564 -113.3647 283° West 410 472 35,500 1,740 Climbing Albuquerque Center
02:02AM 33.5875 -113.4947 286° West 408 470 37,000 1,380 Climbing Albuquerque Center
02:03AM 33.6211 -113.6256 287° West 411 473 38,400 1,320 Climbing Albuquerque Center
02:04AM 33.6525 -113.7564 286° West 411 473 39,700 780 Climbing Albuquerque Center
02:05AM 33.6856 -113.8853 287° West 408 470 40,000 120 Climbing Albuquerque Center
02:06AM 33.7317 -114.0114 294° West 406 467 40,000  Level Albuquerque Center
02:07AM 33.7792 -114.1369 295° West 408 470 40,000  Level Albuquerque Center
02:08AM 33.8286 -114.2622 295° West 412 474 40,000  Level Albuquerque Center
02:09AM 33.8731 -114.3875 293° West 411 473 40,000  Level Albuquerque Center
02:09AM 33.8953 -114.4461 295° West 409 471 40,000  Level Los Angeles Center
02:10AM 33.9392 -114.5717 293° West 408 470 40,000  Level Los Angeles Center
02:11AM 33.9833 -114.6981 293° West 410 472 40,000  Level Los Angeles Center
02:12AM 34.0286 -114.8261 293° West 415 478 40,000  Level Los Angeles Center
02:13AM 34.0744 -114.9542 293° West 417 480 40,000  Level Los Angeles Center
02:14AM 34.1286 -115.1086 293° West 419 482 40,000  Level Los Angeles Center
02:15AM 34.1739 -115.2378 293° West 420 483 40,000  Level Los Angeles Center
02:16AM 34.2183 -115.3692 292° West 423 487 40,000  Level Los Angeles Center
02:17AM 34.2639 -115.4986 293° West 421 484 40,000  Level Los Angeles Center
02:18AM 34.3083 -115.6297 292° West 422 486 40,000  Level Los Angeles Center
02:19AM 34.3536 -115.7594 293° West 419 482 40,000  Level Los Angeles Center
02:20AM 34.4008 -115.8986 292° West 423 487 40,000  Level Los Angeles Center
02:22AM 34.4447 -116.0297 292° West 422 486 40,000  Level Los Angeles Center
02:23AM 34.4894 -116.1614 292° West 424 488 40,000  Level Los Angeles Center
02:24AM 34.5339 -116.2933 292° West 424 488 40,000  Level Los Angeles Center
02:25AM 34.5775 -116.4225 292° West 418 481 40,000  Level Los Angeles Center
02:26AM 34.6211 -116.5519 292° West 415 478 40,000  Level Los Angeles Center
02:27AM 34.6647 -116.6819 292° West 416 479 40,000  Level Los Angeles Center
02:28AM 34.7069 -116.8111 292° West 412 474 40,000  Level Los Angeles Center
02:29AM 34.7494 -116.9397 292° West 412 474 40,000  Level Los Angeles Center
02:30AM 34.7917 -117.0689 292° West 411 473 40,000  Level Los Angeles Center
02:31AM 34.8339 -117.1972 292° West 409 471 40,000  Level Los Angeles Center
02:32AM 34.8764 -117.3269 292° West 410 472 40,000  Level Los Angeles Center
02:33AM 34.9178 -117.4592 291° West 414 476 40,000  Level Los Angeles Center
02:34AM 34.9622 -117.5936 292° West 419 482 40,000  Level Los Angeles Center
02:35AM 35.0058 -117.7297 291° West 420 483 40,000  Level Los Angeles Center
02:36AM 35.0494 -117.8633 292° West 421 484 40,000  Level Los Angeles Center
02:37AM 35.1000 -118.0242 291° West 421 484 40,000  Level Los Angeles Center
02:38AM 35.1419 -118.1531 292° West 412 474 40,000  Level Los Angeles Center
02:39AM 35.1844 -118.2872 291° West 417 480 40,000  Level Los Angeles Center
02:40AM 35.2264 -118.4208 291° West 418 481 40,000  Level Los Angeles Center
02:41AM 35.2689 -118.5525 292° West 424 488 40,000  Level Los Angeles Center
02:42AM 35.3092 -118.6864 290° West 421 484 40,000  Level Los Angeles Center
02:43AM 35.3583 -118.8472 291° West 420 483 40,000  Level Los Angeles Center
02:44AM 35.4014 -118.9822 291° West 422 486 40,000  Level Los Angeles Center
02:45AM 35.4425 -119.1178 290° West 423 487 40,000  Level Los Angeles Center
02:46AM 35.4836 -119.2503 291° West 418 481 40,000  Level Los Angeles Center
02:47AM 35.5242 -119.3844 290° West 418 481 40,000  Level Los Angeles Center
02:48AM 35.5544 -119.4894 290° West 419 482 40,000  Level Oakland Center
02:49AM 35.5944 -119.6222 290° West 417 480 40,000  Level Oakland Center
02:50AM 35.6344 -119.7556 290° West 418 481 40,000  Level Oakland Center
02:51AM 35.6744 -119.8881 290° West 418 481 40,000  Level Oakland Center
02:52AM 35.7131 -120.0169 290° West 410 472 40,000  Level Oakland Center
02:53AM 35.7506 -120.1431 290° West 400 460 40,000  Level Oakland Center
02:54AM 35.7878 -120.2697 290° West 398 458 40,000  Level Oakland Center
02:55AM 35.8319 -120.4211 290° West 397 457 40,000  Level Oakland Center
02:56AM 35.8683 -120.5467 290° West 394 453 40,000  Level Oakland Center
02:57AM 35.9058 -120.6731 290° West 396 456 40,000  Level Oakland Center
02:58AM 35.9422 -120.8017 289° West 399 459 40,000  Level Oakland Center
02:59AM 35.9797 -120.9308 290° West 401 461 40,000  Level Oakland Center
03:00AM 36.0167 -121.0617 289° West 406 467 40,000  Level Oakland Center
03:01AM 36.0544 -121.1925 290° West 406 467 40,000  Level Oakland Center
03:02AM 36.0925 -121.3244 290° West 409 471 40,000  Level Oakland Center
03:03AM 36.1306 -121.4575 290° West 412 474 40,000  Level Oakland Center
03:04AM 36.1675 -121.5917 289° West 414 476 40,000 -240 Level Oakland Center
03:05AM 36.2422 -121.6931 312° West 415 478 39,600 -1,380 Descending Oakland Center
03:06AM 36.3450 -121.7542 334° Northwest 409 471 37,300 -1,800 Descending Oakland Center
03:07AM 36.4550 -121.8108 337° Northwest 400 460 36,000 -1,200 Descending Oakland Center
03:08AM 36.5486 -121.8611 337° Northwest 366 421 35,000 -1,380 Descending Oakland Center
03:09AM 36.6386 -121.9089 337° Northwest 355 409 33,300 -1,440 Descending Oakland Center
03:10AM 36.7256 -121.9525 338° Northwest 339 390 32,200 -1,200 Descending Oakland Center
03:11AM 36.7881 -122.0200 319° Northwest 316 364 31,000 -1,380 Descending Oakland Center
03:12AM 36.7414 -122.1114 238° Southwest 340 391 29,500 -1,500 Descending Oakland Center
03:13AM 36.6531 -122.0944 171° South 323 372 28,000 -1,260 Descending Oakland Center
03:14AM 36.5650 -122.0694 167° South 323 372 27,000 -540 Descending Oakland Center
03:15AM 36.5111 -121.9975 133° Southeast 313 360 27,000  Level Oakland Center
03:16AM 36.5536 -121.9219 55° Northeast 291 335 27,000  Level Oakland Center
03:17AM 36.6289 -121.9336 353° North 281 323 27,000 -600 Level Oakland Center
03:18AM 36.7036 -121.9536 348° North 276 318 25,800 -1,200 Descending Oakland Center
03:19AM 36.7758 -121.9819 343° North 276 318 24,600 -1,260 Descending Oakland Center
03:20AM 36.7636 -122.0742 261° West 291 335 23,300 -1,320 Descending Oakland Center
03:21AM 36.6861 -122.0714 178° South 287 330 22,000 -660 Descending Oakland Center
03:22AM 36.6089 -122.0489 167° South 284 327 22,000  Level Oakland Center
03:23AM 36.5314 -122.0278 168° South 284 327 22,000 -420 Level Oakland Center
03:24AM 36.4603 -121.9922 158° South 281 323 21,200 -1,020 Descending Oakland Center
03:25AM 36.4806 -121.9089 73° East 274 315 20,000 -600 Descending Oakland Center
03:26AM 36.5481 -121.9139 357° North 250 288 20,000  Level Oakland Center
03:27AM 36.6253 -121.9331 349° North 289 333 20,000 -300 Level Oakland Center
03:28AM 36.6833 -121.9500 347° North 322 371 19,600 -1,380 Descending Northern Cal TRACON
03:29AM 36.7667 -121.9667 351° North 312 359 18,100 -1,680 Descending Northern Cal TRACON
03:30AM 36.8500 -121.9833 351° North 306 352 16,500 -1,440 Descending Northern Cal TRACON
03:30AM 36.8794 -121.9989 337° Northwest 306 352 15,800 -1,680 Descending Oakland Center
03:31AM 36.9794 -122.0247 348° North 306 352 13,800 -1,440 Descending Oakland Center
03:32AM 37.0503 -122.0572 340° North 277 319 12,900 -960 Descending Oakland Center
03:33AM 37.0989 -122.1231 313° West 258 297 11,900 -1,080 Descending Oakland Center
03:34AM 37.1467 -122.1822 315° West 244 281 10,800 -1,140 Descending Oakland Center
03:35AM 37.1942 -122.2428 315° West 243 280 9,700 -960 Descending Oakland Center
03:36AM 37.2394 -122.3028 313° West 239 275 8,900 -780 Descending Oakland Center
03:37AM 37.2847 -122.3622 314° West 235 270 8,200 -900 Descending Oakland Center
03:38AM 37.3311 -122.4208 315° West 237 273 7,200 -780 Descending Oakland Center
03:39AM 37.3764 -122.4750 316° Northwest 230 265 6,700 -600 Descending Oakland Center
03:40AM 37.4078 -122.4233 53° Northeast 219 252 6,100 -420 Descending Oakland Center
03:41AM 37.4028 -122.3486 95° East 215 247 5,900 -120 Descending Oakland Center
03:42AM 37.4083 -122.2717 85° East 220 253 5,900 -480 Level Oakland Center
03:43AM 37.4119 -122.1961 87° East 218 251 5,000 -900 Descending Oakland Center
03:44AM 37.4444 -122.1361 56° Northeast 214 246 4,200 -660 Descending Oakland Center
03:45AM 37.4914 -122.1133 21° North 201 231 3,700 -600 Descending Oakland Center
03:46AM 37.5286 -122.1536 319° Northwest 185 213 3,000 -720 Descending Oakland Center
03:47AM 37.5497 -122.2028 298° West 170 196 2,300 -660 Descending Oakland Center
03:48AM 37.5689 -122.2517 296° West 162 186 1,700 -660 Descending Oakland Center
03:49AM 37.5881 -122.2972 298° West 155 178 1,000 -660 Descending Oakland Center
03:50AM 37.6031 -122.3331 298° West 136 157 400 -600 Descending Oakland Center
03:53AM 37.6167 -122.3667 322° Northwest  Level FlightAware Approximate